Accueil
METAR-TAF:

METAR-TAF

Aéroports :

Aéroport de Milan Malpensa

Milan, Italie

latitude: 45-37N, longitude: 008-44E, altitude: 234 m

Observation

Le bulletin a été fait il y a 39 minutes, à 21:50 UTC
Vent 1 kt de direction variable
Température 3°C
Humidité 93%
Pression 1011 hPa
Visibilité: 8000 m
bancs de brouillard

METAR: LIMC 202150Z VRB01KT 8000 R35R/1400U R17L/1400U R35L/P1500N BCFG NSC 03/02 Q1011 NOSIG

Heure: 23:29 (22:29 UTC)

Prévision

Le bulletin a été fait il y a 5 heures et 29 minutes, à 17:00 UTC
Prévision valable du 20 à 18 UTC au 21 à 24 UTC
Vent 5 kt de direction variable
Visibilité: 8000 m
Nuages épars à une hauteur de 5000 ft
Temporairement
du 21 à 00 UTC au 21 à 07 UTC
Visibilité: 3000 m
bancs de brouillard

TAF: LIMC 201700Z 2018/2124 VRB05KT 8000 SCT050 TEMPO 2100/2107 3000 BCFG

Observations et prévisions météorologiques de plus de 4000 aéroports (messages METAR et TAF).

Les stations disponibles sont représentées par des disques jaunes et rouges sur la carte.

Passer la souris dessus pour voir le nom de la station.

Cliquer dessus pour voir les observations et prévisions météorologiques.

Pour changer de carte: cliquez sur les boutons verts avec une croix noire pour zoomer, sur le bouton vert avec un tiret pour effectuer un zoom arrière, ou sur les flèches vertes pour les cartes adjacentes.


METAR-TAF: